aviador You're here:

VOHY Decoded Metar

HYDERABAD in INDIA
Report Time2018-05-26 15:00:00
UTC Time2018-05-26 15:35:52
Flight Rules mvfr MVFR
Wind140° at 05 kt
W.Decomp.*RWY 09: 3.1 kt HW 3.9 kt RCW
W.Rank140° ranks 12
Current wind is above 140° avg. (4.7)
Visibility6000 m
Phenomena:N/A
Clouds:N/A
Expected CloudBase > 4,400 ft AGL from Temp-Dew spread
CeilingNone
Temp34°C (ISA +23)
Dew Point23°C (53% RH)
Heat Index39.4°C
QNH1007 hPa
Density Alt4,921 ft
Elevation1,788 ft
Report Wrong Elevation
Raw Report
VOHY 261500Z 14005KT 6000 NSC 34/23 Q1007 NOSIG=

Extra information for VOHY:More info

Metar Taf Metar & Taf Last 4 Metars F.Rules Stats Wind Profile Meteogram Temp Stats Airport Information Weather charts Add Link Nearby VenuesMetar ALERT Operation Metar Decoded Social comments